createdAt,value
2022-08-09T00:00:06.806Z,20.98
2022-08-09T00:01:10.334Z,20.98
2022-08-09T00:02:06.801Z,20.96
2022-08-09T00:03:18.863Z,20.95
2022-08-09T00:04:24.983Z,20.95
2022-08-09T00:06:15.443Z,20.93
2022-08-09T00:06:18.097Z,20.96
2022-08-09T00:07:10.487Z,20.95
2022-08-09T00:08:10.017Z,20.98
2022-08-09T00:09:05.674Z,20.96
2022-08-09T00:10:05.658Z,20.99
2022-08-09T00:11:24.656Z,20.98
2022-08-09T00:12:06.588Z,21.01
2022-08-09T00:13:05.613Z,21.02
2022-08-09T00:14:06.600Z,21.05
2022-08-09T00:15:06.571Z,21.06
2022-08-09T00:16:05.512Z,21.11
2022-08-09T00:17:05.539Z,21.16
2022-08-09T00:18:11.478Z,21.14
2022-08-09T00:19:09.369Z,21.14
2022-08-09T00:20:05.486Z,21.16
2022-08-09T00:21:08.401Z,21.17
2022-08-09T00:22:05.452Z,21.19
2022-08-09T00:23:08.477Z,21.19
2022-08-09T00:24:06.410Z,21.16
2022-08-09T00:25:08.527Z,21.20
2022-08-09T00:26:05.515Z,21.30
2022-08-09T00:27:05.453Z,21.35
2022-08-09T00:28:05.370Z,21.44
2022-08-09T00:29:12.501Z,21.45
2022-08-09T00:30:16.220Z,21.56
2022-08-09T00:31:09.255Z,21.64
2022-08-09T00:32:06.310Z,21.67
2022-08-09T00:33:05.298Z,21.72
2022-08-09T00:34:05.250Z,21.78
2022-08-09T00:35:05.261Z,21.78
2022-08-09T00:36:05.233Z,21.76
2022-08-09T00:37:05.312Z,21.76
2022-08-09T00:38:05.254Z,21.78
2022-08-09T00:39:05.253Z,21.75
2022-08-09T00:40:13.054Z,21.74
2022-08-09T00:41:08.311Z,21.69
2022-08-09T00:44:09.986Z,21.57
2022-08-09T00:44:14.659Z,21.50
2022-08-09T00:44:15.388Z,21.63
2022-08-09T00:45:16.054Z,21.44
2022-08-09T00:46:06.120Z,21.38
2022-08-09T00:47:05.957Z,21.34
2022-08-09T00:48:05.584Z,21.26
2022-08-09T00:49:05.081Z,21.20
2022-08-09T00:50:05.160Z,21.16
2022-08-09T00:51:10.374Z,21.13
2022-08-09T00:52:17.751Z,21.06
2022-08-09T00:53:10.181Z,21.06
2022-08-09T00:54:04.996Z,21.06
2022-08-09T00:55:05.052Z,21.02
2022-08-09T00:56:09.774Z,20.98
2022-08-09T00:57:10.408Z,20.93
2022-08-09T00:58:06.010Z,20.89
2022-08-09T00:59:04.921Z,20.84
2022-08-09T01:00:05.424Z,20.80
2022-08-09T01:01:05.976Z,20.76
2022-08-09T01:02:04.899Z,20.71
2022-08-09T01:03:04.892Z,20.68
2022-08-09T01:04:04.904Z,20.65
2022-08-09T01:05:04.892Z,20.64
2022-08-09T01:06:18.285Z,20.61
2022-08-09T01:07:05.924Z,20.58
2022-08-09T01:08:05.825Z,20.53
2022-08-09T01:09:06.170Z,20.56
2022-08-09T01:10:04.771Z,20.53
2022-08-09T01:11:04.831Z,20.51
2022-08-09T01:12:04.764Z,20.49
2022-08-09T01:13:04.842Z,20.46
2022-08-09T01:14:04.807Z,20.42
2022-08-09T01:15:05.883Z,20.39
2022-08-09T01:16:05.693Z,20.39
2022-08-09T01:17:04.784Z,20.42
2022-08-09T01:18:04.866Z,20.42
2022-08-09T01:19:04.960Z,20.42
2022-08-09T01:20:04.653Z,20.42
2022-08-09T01:21:04.676Z,20.43
2022-08-09T01:22:04.624Z,20.46
2022-08-09T01:23:05.638Z,20.46
2022-08-09T01:24:05.733Z,20.47
2022-08-09T01:25:04.631Z,20.42
2022-08-09T01:26:04.623Z,20.41
2022-08-09T01:27:04.583Z,20.43
2022-08-09T01:28:04.562Z,20.42
2022-08-09T01:29:04.528Z,20.43
2022-08-09T01:30:04.642Z,20.43
2022-08-09T01:31:06.105Z,20.43
2022-08-09T01:32:30.181Z,20.41
2022-08-09T01:33:05.528Z,20.41
2022-08-09T01:34:04.466Z,20.41
2022-08-09T01:35:07.150Z,20.42
2022-08-09T01:36:05.548Z,20.47
2022-08-09T01:37:04.434Z,20.49
2022-08-09T01:38:09.381Z,20.51
2022-08-09T01:39:05.463Z,20.51
2022-08-09T01:40:04.420Z,20.50
2022-08-09T01:41:05.230Z,20.49
2022-08-09T01:42:11.166Z,20.49
2022-08-09T01:43:05.410Z,20.46
2022-08-09T01:44:04.369Z,20.42
2022-08-09T01:45:05.579Z,20.41
2022-08-09T01:46:04.351Z,20.43
2022-08-09T01:47:04.417Z,20.46
2022-08-09T01:48:06.246Z,20.46
2022-08-09T01:49:10.324Z,20.46
2022-08-09T01:50:06.493Z,20.51
2022-08-09T01:51:04.317Z,20.58
2022-08-09T01:52:07.016Z,20.62
2022-08-09T01:53:19.772Z,20.68
2022-08-09T01:54:05.250Z,20.69
2022-08-09T01:55:04.312Z,20.71
2022-08-09T01:56:04.186Z,20.72
2022-08-09T01:57:04.339Z,20.74
2022-08-09T01:58:04.152Z,20.76
2022-08-09T01:59:04.150Z,20.74
2022-08-09T02:00:19.195Z,20.79
2022-08-09T02:01:05.149Z,20.83
2022-08-09T02:02:04.095Z,20.84
2022-08-09T02:03:04.178Z,20.89
2022-08-09T02:04:04.177Z,20.91
2022-08-09T02:05:05.473Z,20.93
2022-08-09T02:06:06.849Z,20.93
2022-08-09T02:07:04.054Z,20.91
2022-08-09T02:08:41.400Z,20.91
2022-08-09T02:09:05.093Z,20.89
2022-08-09T02:10:04.343Z,20.89
2022-08-09T02:11:03.967Z,20.87
2022-08-09T02:12:04.955Z,20.84
2022-08-09T02:13:03.936Z,20.81
2022-08-09T02:14:07.361Z,20.83
2022-08-09T02:15:06.342Z,20.80
2022-08-09T02:16:03.937Z,20.81
2022-08-09T02:17:29.625Z,20.77
2022-08-09T02:18:10.428Z,20.76
2022-08-09T02:19:04.868Z,20.71
2022-08-09T02:20:03.912Z,20.69
2022-08-09T02:21:03.869Z,20.66
2022-08-09T02:22:03.805Z,20.62
2022-08-09T02:23:03.827Z,20.56
2022-08-09T02:24:03.938Z,20.53
2022-08-09T02:25:03.756Z,20.50
2022-08-09T02:26:03.749Z,20.49
2022-08-09T02:27:03.775Z,20.46
2022-08-09T02:28:05.209Z,20.41
2022-08-09T02:29:03.801Z,20.33
2022-08-09T02:30:03.704Z,20.33
2022-08-09T02:31:03.738Z,20.35
2022-08-09T02:32:03.677Z,20.38
2022-08-09T02:33:03.667Z,20.38
2022-08-09T02:34:13.275Z,20.35
2022-08-09T02:35:17.347Z,20.34
2022-08-09T02:36:04.639Z,20.39
2022-08-09T02:37:03.749Z,20.43
2022-08-09T02:38:03.594Z,20.43
2022-08-09T02:39:03.649Z,20.43
2022-08-09T02:40:03.622Z,20.46
2022-08-09T02:41:04.556Z,20.43
2022-08-09T02:42:03.531Z,20.42
2022-08-09T02:43:03.514Z,20.43
2022-08-09T02:44:10.275Z,20.42
2022-08-09T02:45:04.553Z,20.41
2022-08-09T02:46:03.478Z,20.39
2022-08-09T02:47:04.195Z,20.41
2022-08-09T02:48:03.448Z,20.39
2022-08-09T02:49:03.445Z,20.35
2022-08-09T02:50:03.461Z,20.35
2022-08-09T02:51:03.458Z,20.34
2022-08-09T02:52:03.703Z,20.34
2022-08-09T02:53:03.747Z,20.33
2022-08-09T02:54:03.408Z,20.33
2022-08-09T02:55:03.409Z,20.31
2022-08-09T02:56:04.365Z,20.28
2022-08-09T02:57:13.959Z,20.28
2022-08-09T02:58:32.254Z,20.30
2022-08-09T02:59:04.332Z,20.31
2022-08-09T03:00:20.410Z,20.35
2022-08-09T03:01:06.122Z,20.35
2022-08-09T03:02:06.279Z,20.35
2022-08-09T03:03:03.313Z,20.34
2022-08-09T03:04:17.504Z,20.28
2022-08-09T03:05:04.235Z,20.25
2022-08-09T03:06:03.255Z,20.23
2022-08-09T03:07:12.245Z,20.16
2022-08-09T03:08:04.209Z,20.12
2022-08-09T03:09:03.197Z,20.08
2022-08-09T03:10:03.159Z,20.09
2022-08-09T03:11:03.143Z,20.08
2022-08-09T03:12:05.641Z,20.05
2022-08-09T03:13:08.617Z,20.03
2022-08-09T03:14:04.121Z,20.03
2022-08-09T03:15:03.141Z,20.00
2022-08-09T03:16:06.333Z,19.93
2022-08-09T03:17:05.861Z,19.80
2022-08-09T03:18:03.059Z,19.75
2022-08-09T03:19:04.065Z,19.66
2022-08-09T03:20:05.315Z,19.58
2022-08-09T03:21:04.020Z,19.53
2022-08-09T03:22:03.328Z,19.42
2022-08-09T03:23:15.124Z,19.39
2022-08-09T03:24:05.153Z,19.35
2022-08-09T03:25:06.639Z,19.33
2022-08-09T03:26:05.081Z,19.29
2022-08-09T03:27:02.919Z,19.31
2022-08-09T03:28:02.942Z,19.25
2022-08-09T03:29:02.916Z,19.23
2022-08-09T03:30:04.479Z,19.20
2022-08-09T03:31:09.928Z,19.20
2022-08-09T03:32:03.910Z,19.17
2022-08-09T03:33:05.627Z,19.15
2022-08-09T03:34:03.845Z,19.15
2022-08-09T03:35:02.844Z,19.11
2022-08-09T03:36:13.143Z,19.10
2022-08-09T03:37:54.869Z,19.08
2022-08-09T03:38:03.810Z,19.06
2022-08-09T03:39:02.876Z,19.02
2022-08-09T03:40:02.811Z,18.99
2022-08-09T03:41:02.921Z,18.99
2022-08-09T03:42:06.216Z,18.97
2022-08-09T03:43:02.708Z,18.94
2022-08-09T03:44:08.449Z,18.90
2022-08-09T03:45:03.681Z,18.87
2022-08-09T03:46:04.164Z,18.86
2022-08-09T03:47:03.740Z,18.84
2022-08-09T03:48:02.681Z,18.82
2022-08-09T03:49:04.260Z,18.83
2022-08-09T03:50:03.613Z,18.87
2022-08-09T03:51:02.664Z,18.87
2022-08-09T03:52:03.683Z,18.90
2022-08-09T03:53:03.220Z,18.91
2022-08-09T03:54:02.629Z,18.87
2022-08-09T03:55:02.542Z,18.90
2022-08-09T03:56:03.521Z,18.87
2022-08-09T03:57:04.205Z,18.90
2022-08-09T03:58:10.031Z,18.87
2022-08-09T03:59:03.522Z,18.90
2022-08-09T04:00:02.508Z,18.90
2022-08-09T04:01:02.522Z,18.84
2022-08-09T04:02:02.448Z,18.79
2022-08-09T04:03:02.412Z,18.76
2022-08-09T04:04:03.899Z,18.72
2022-08-09T04:05:06.686Z,18.67
2022-08-09T04:06:04.408Z,18.65
2022-08-09T04:07:02.444Z,18.62
2022-08-09T04:08:02.350Z,18.62
2022-08-09T04:09:02.372Z,18.61
2022-08-09T04:10:02.376Z,18.61
2022-08-09T04:11:02.356Z,18.65
2022-08-09T04:12:02.588Z,18.77
2022-08-09T04:13:04.014Z,18.92
2022-08-09T04:14:53.557Z,19.01
2022-08-09T04:15:11.419Z,19.11
2022-08-09T04:16:20.659Z,19.18
2022-08-09T04:17:03.241Z,19.23
2022-08-09T04:18:02.232Z,19.25
2022-08-09T04:19:02.222Z,19.25
2022-08-09T04:20:02.570Z,19.24
2022-08-09T04:21:02.307Z,19.21
2022-08-09T04:22:02.217Z,19.11
2022-08-09T04:23:02.182Z,19.05
2022-08-09T04:24:02.133Z,18.97
2022-08-09T04:25:03.018Z,18.92
2022-08-09T04:26:02.092Z,18.90
2022-08-09T04:27:02.114Z,18.92
2022-08-09T04:28:03.462Z,18.94
2022-08-09T04:29:09.672Z,18.94
2022-08-09T04:30:03.033Z,18.95
2022-08-09T04:31:07.871Z,18.98
2022-08-09T04:32:03.107Z,19.02
2022-08-09T04:33:01.984Z,19.01
2022-08-09T04:34:02.058Z,18.98
2022-08-09T04:35:01.973Z,18.97
2022-08-09T04:36:01.983Z,18.97
2022-08-09T04:37:01.938Z,18.95
2022-08-09T04:38:03.766Z,18.98
2022-08-09T04:39:01.927Z,19.06
2022-08-09T04:40:02.181Z,19.28
2022-08-09T04:41:01.919Z,19.69
2022-08-09T04:42:02.706Z,20.15
2022-08-09T04:43:01.866Z,20.54
2022-08-09T04:44:05.768Z,20.96
2022-08-09T04:45:02.935Z,21.29
2022-08-09T04:46:01.822Z,21.50
2022-08-09T04:47:04.569Z,21.50
2022-08-09T04:48:03.097Z,21.34
2022-08-09T04:49:01.783Z,21.16
2022-08-09T04:50:01.792Z,21.19
2022-08-09T04:51:01.809Z,21.53
2022-08-09T04:52:01.752Z,21.91
2022-08-09T04:53:01.715Z,22.25
2022-08-09T04:54:01.714Z,22.54
2022-08-09T04:55:02.191Z,22.84
2022-08-09T04:56:01.684Z,23.20
2022-08-09T04:57:03.875Z,23.52
2022-08-09T04:58:09.196Z,23.85
2022-08-09T04:59:07.729Z,23.67
2022-08-09T05:00:02.636Z,23.20
2022-08-09T05:01:01.637Z,22.83
2022-08-09T05:02:02.755Z,22.47
2022-08-09T05:03:12.920Z,22.31
2022-08-09T05:04:02.990Z,22.35
2022-08-09T05:05:04.313Z,22.44
2022-08-09T05:06:07.016Z,22.25
2022-08-09T05:07:02.546Z,22.34
2022-08-09T05:08:01.537Z,22.39
2022-08-09T05:09:01.563Z,22.64
2022-08-09T05:10:02.149Z,22.68
2022-08-09T05:11:02.291Z,22.62
2022-08-09T05:12:01.476Z,22.43
2022-08-09T05:13:03.785Z,22.16
2022-08-09T05:14:01.455Z,22.22
2022-08-09T05:15:01.469Z,22.39
2022-08-09T05:16:01.430Z,22.41
2022-08-09T05:17:01.428Z,22.49
2022-08-09T05:18:39.244Z,22.59
2022-08-09T05:19:02.840Z,22.59
2022-08-09T05:20:01.369Z,22.38
2022-08-09T05:21:01.368Z,22.28
2022-08-09T05:22:01.365Z,22.28
2022-08-09T05:23:53.625Z,22.43
2022-08-09T05:24:04.021Z,22.57
2022-08-09T05:25:02.727Z,22.71
2022-08-09T05:26:01.309Z,22.77
2022-08-09T05:27:01.321Z,22.83
2022-08-09T05:28:01.295Z,22.93
2022-08-09T05:29:01.248Z,22.94
2022-08-09T05:30:02.243Z,22.97
2022-08-09T05:31:01.240Z,22.69
2022-08-09T05:32:02.231Z,22.57
2022-08-09T05:33:01.834Z,22.59
2022-08-09T05:34:01.181Z,22.87
2022-08-09T05:35:01.173Z,22.94
2022-08-09T05:36:01.231Z,22.83
2022-08-09T05:37:01.656Z,22.89
2022-08-09T05:38:01.155Z,23.07
2022-08-09T05:39:01.151Z,23.14
2022-08-09T05:40:01.181Z,23.12
2022-08-09T05:41:01.096Z,23.02
2022-08-09T05:42:01.773Z,22.89
2022-08-09T05:43:01.073Z,22.75
2022-08-09T05:44:01.123Z,22.60
2022-08-09T05:45:01.109Z,22.52
2022-08-09T05:46:01.065Z,22.49
2022-08-09T05:47:01.021Z,22.75
2022-08-09T05:48:01.509Z,23.01
2022-08-09T05:49:01.006Z,23.14
2022-08-09T05:50:25.632Z,23.57
2022-08-09T05:51:43.176Z,23.83
2022-08-09T05:52:01.974Z,24.02
2022-08-09T05:53:00.974Z,23.97
2022-08-09T05:54:00.989Z,23.90
2022-08-09T05:55:06.795Z,23.92
2022-08-09T05:56:01.936Z,24.07
2022-08-09T05:57:00.996Z,24.37
2022-08-09T05:58:00.908Z,24.44
2022-08-09T05:59:00.911Z,24.39
2022-08-09T06:00:00.894Z,24.14
2022-08-09T06:01:00.859Z,24.35
2022-08-09T06:02:00.856Z,24.57
2022-08-09T06:03:00.913Z,24.92
2022-08-09T06:04:00.949Z,25.25
2022-08-09T06:05:00.826Z,25.53
2022-08-09T06:06:05.790Z,25.89
2022-08-09T06:07:01.833Z,26.22
2022-08-09T06:08:05.613Z,26.49
2022-08-09T06:09:01.789Z,26.77
2022-08-09T06:10:02.275Z,26.73
2022-08-09T06:11:00.766Z,26.79
2022-08-09T06:12:00.801Z,26.99
2022-08-09T06:13:04.556Z,26.99
2022-08-09T06:14:01.698Z,27.17
2022-08-09T06:15:02.189Z,27.36
2022-08-09T06:16:00.849Z,27.10
2022-08-09T06:17:00.656Z,27.06
2022-08-09T06:18:01.686Z,26.74
2022-08-09T06:19:00.675Z,26.55
2022-08-09T06:20:00.653Z,26.64
2022-08-09T06:21:00.689Z,26.62
2022-08-09T06:22:00.696Z,26.99
2022-08-09T06:23:00.693Z,27.05
2022-08-09T06:24:01.542Z,26.72
2022-08-09T06:25:00.580Z,26.68
2022-08-09T06:26:00.558Z,26.15
2022-08-09T06:27:00.678Z,25.80
2022-08-09T06:28:00.562Z,25.87
2022-08-09T06:29:05.039Z,26.24
2022-08-09T06:30:04.393Z,26.92
2022-08-09T06:31:01.514Z,26.94
2022-08-09T06:32:32.353Z,26.46
2022-08-09T06:33:30.404Z,25.91
2022-08-09T06:34:01.466Z,25.82
2022-08-09T06:35:00.632Z,25.94
2022-08-09T06:36:00.539Z,26.17
2022-08-09T06:37:00.491Z,26.46
2022-08-09T06:38:05.634Z,26.92
2022-08-09T06:39:02.659Z,26.77
2022-08-09T06:40:16.347Z,26.32
2022-08-09T06:41:01.394Z,26.40
2022-08-09T06:42:08.759Z,26.89
2022-08-09T06:43:01.477Z,27.31
2022-08-09T06:44:00.373Z,27.58
2022-08-09T06:45:04.663Z,27.70
2022-08-09T06:46:06.771Z,27.91
2022-08-09T06:47:01.353Z,27.98
2022-08-09T06:48:01.377Z,28.41
2022-08-09T06:49:00.647Z,29.00
2022-08-09T06:50:14.704Z,29.49
2022-08-09T06:51:01.326Z,29.26
2022-08-09T06:52:00.301Z,27.79
2022-08-09T06:53:00.285Z,26.22
2022-08-09T06:54:00.870Z,24.69
2022-08-09T06:55:00.213Z,23.68
2022-08-09T06:56:01.206Z,22.99
2022-08-09T06:57:00.210Z,22.78
2022-08-09T06:58:01.771Z,22.75
2022-08-09T07:00:52.910Z,22.82
2022-08-09T07:00:54.788Z,22.83
2022-08-09T07:01:01.380Z,22.82
2022-08-09T07:02:04.335Z,22.84
2022-08-09T07:03:00.296Z,22.94
2022-08-09T07:04:04.053Z,23.04
2022-08-09T07:05:00.181Z,22.96
2022-08-09T07:06:03.920Z,22.78
2022-08-09T07:07:01.008Z,22.67
2022-08-09T07:08:01.767Z,22.57
2022-08-09T07:09:00.050Z,22.56
2022-08-09T07:10:14.307Z,22.65
2022-08-09T07:11:01.026Z,22.65
2022-08-09T07:11:59.998Z,22.60
2022-08-09T07:13:00.113Z,22.49
2022-08-09T07:14:05.643Z,22.46
2022-08-09T07:15:03.469Z,22.44
2022-08-09T07:16:42.706Z,22.46
2022-08-09T07:17:00.944Z,22.46
2022-08-09T07:18:02.435Z,22.54
2022-08-09T07:18:59.938Z,22.68
2022-08-09T07:19:59.943Z,22.83
2022-08-09T07:20:59.944Z,23.01
2022-08-09T07:21:59.929Z,23.15
2022-08-09T07:22:59.915Z,23.31
2022-08-09T07:23:59.871Z,23.27
2022-08-09T07:24:59.830Z,23.31
2022-08-09T07:26:02.217Z,23.46
2022-08-09T07:26:59.838Z,23.62
2022-08-09T07:27:59.790Z,23.64
2022-08-09T07:29:08.855Z,23.57
2022-08-09T07:30:00.813Z,23.39
2022-08-09T07:30:59.744Z,23.32
2022-08-09T07:31:59.729Z,23.34
2022-08-09T07:32:59.736Z,23.45
2022-08-09T07:33:59.891Z,23.53
2022-08-09T07:34:59.789Z,23.58
2022-08-09T07:35:59.733Z,23.64
2022-08-09T07:37:02.674Z,23.64
2022-08-09T07:37:59.752Z,23.62
2022-08-09T07:39:00.979Z,23.71
2022-08-09T07:39:59.636Z,23.68
2022-08-09T07:41:11.037Z,23.52
2022-08-09T07:42:00.581Z,23.39
2022-08-09T07:42:59.665Z,23.45
2022-08-09T07:43:59.589Z,23.52
2022-08-09T07:45:02.503Z,23.60
2022-08-09T07:46:01.802Z,23.58
2022-08-09T07:46:59.582Z,23.55
2022-08-09T07:48:01.611Z,23.58
2022-08-09T07:49:00.535Z,23.75
2022-08-09T07:50:07.685Z,23.94
2022-08-09T07:51:09.461Z,24.10
2022-08-09T07:52:05.878Z,24.26
2022-08-09T07:53:02.827Z,24.34
2022-08-09T07:54:05.507Z,24.29
2022-08-09T07:55:00.527Z,24.38
2022-08-09T07:56:03.278Z,24.45
2022-08-09T07:57:00.409Z,24.41
2022-08-09T07:57:59.404Z,24.39
2022-08-09T07:58:59.763Z,24.44
2022-08-09T08:00:03.455Z,24.47
2022-08-09T08:01:06.176Z,24.47
2022-08-09T08:02:00.408Z,24.57
2022-08-09T08:02:59.491Z,24.67
2022-08-09T08:03:59.396Z,24.69
2022-08-09T08:04:59.359Z,24.69
2022-08-09T08:05:59.317Z,24.71
2022-08-09T08:07:00.274Z,24.75
2022-08-09T08:09:00.268Z,24.80
2022-08-09T08:09:05.063Z,24.90
2022-08-09T08:10:05.753Z,24.97
2022-08-09T08:12:11.436Z,25.07
2022-08-09T08:12:28.047Z,25.05
2022-08-09T08:13:00.264Z,24.94
2022-08-09T08:13:59.497Z,24.97
2022-08-09T08:14:59.525Z,25.05
2022-08-09T08:15:59.178Z,25.09
2022-08-09T08:17:07.579Z,25.10
2022-08-09T08:18:00.151Z,25.17
2022-08-09T08:18:59.112Z,25.30
2022-08-09T08:19:59.107Z,25.38
2022-08-09T08:20:59.065Z,25.42
2022-08-09T08:21:59.169Z,25.49
2022-08-09T08:23:03.394Z,25.53
2022-08-09T08:24:01.378Z,25.64
2022-08-09T08:25:00.069Z,25.75
2022-08-09T08:26:55.032Z,25.68
2022-08-09T08:27:00.008Z,25.62
2022-08-09T08:27:59.076Z,25.64
2022-08-09T08:28:59.025Z,25.71
2022-08-09T08:29:59.024Z,25.69
2022-08-09T08:30:58.948Z,25.65
2022-08-09T08:32:04.191Z,25.64
2022-08-09T08:32:59.959Z,25.71
2022-08-09T08:33:58.910Z,25.82
2022-08-09T08:34:59.331Z,25.90
2022-08-09T08:36:03.600Z,25.98
2022-08-09T08:37:01.339Z,26.01
2022-08-09T08:38:02.100Z,25.91
2022-08-09T08:39:00.333Z,25.84
2022-08-09T08:39:58.870Z,25.82
2022-08-09T08:40:58.810Z,25.84
2022-08-09T08:41:59.076Z,25.98
2022-08-09T08:42:59.008Z,26.08
2022-08-09T08:44:02.541Z,26.18
2022-08-09T08:44:58.789Z,26.20
2022-08-09T08:46:09.908Z,26.20
2022-08-09T08:47:04.562Z,26.17
2022-08-09T08:47:59.916Z,26.15
2022-08-09T08:48:58.741Z,26.21
2022-08-09T08:49:58.750Z,26.39
2022-08-09T08:50:58.809Z,26.49
2022-08-09T08:52:00.332Z,26.44
2022-08-09T08:53:00.780Z,26.39
2022-08-09T08:54:03.665Z,26.50
2022-08-09T08:55:01.215Z,26.59
2022-08-09T08:55:58.718Z,26.47
2022-08-09T08:56:58.630Z,26.39
2022-08-09T08:57:58.605Z,26.46
2022-08-09T08:58:58.632Z,26.52
2022-08-09T08:59:59.137Z,26.55
2022-08-09T09:00:58.631Z,26.62
2022-08-09T09:01:59.524Z,26.69
2022-08-09T09:03:02.827Z,26.68
2022-08-09T09:03:59.578Z,26.72
2022-08-09T09:04:58.485Z,26.76
2022-08-09T09:06:04.888Z,26.87
2022-08-09T09:06:59.470Z,26.91
2022-08-09T09:07:58.421Z,27.02
2022-08-09T09:08:59.612Z,27.13
2022-08-09T09:10:02.417Z,27.17
2022-08-09T09:10:59.394Z,27.31
2022-08-09T09:11:58.411Z,27.39
2022-08-09T09:12:58.407Z,27.29
2022-08-09T09:13:58.674Z,27.23
2022-08-09T09:14:58.382Z,27.20
2022-08-09T09:15:58.394Z,27.21
2022-08-09T09:16:58.314Z,27.24
2022-08-09T09:17:58.377Z,27.21
2022-08-09T09:19:15.725Z,27.31
2022-08-09T09:19:59.294Z,27.31
2022-08-09T09:20:58.250Z,27.11
2022-08-09T09:21:58.315Z,27.06
2022-08-09T09:23:02.031Z,27.20
2022-08-09T09:24:04.431Z,27.38
2022-08-09T09:26:01.158Z,27.50
2022-08-09T09:26:01.986Z,27.43
2022-08-09T09:26:59.176Z,27.51
2022-08-09T09:28:06.482Z,27.57
2022-08-09T09:29:03.876Z,27.59
2022-08-09T09:30:10.535Z,27.59
2022-08-09T09:30:59.146Z,27.48
2022-08-09T09:32:03.974Z,27.43
2022-08-09T09:32:59.137Z,27.48
2022-08-09T09:33:58.136Z,27.51
2022-08-09T09:34:58.126Z,27.58
2022-08-09T09:36:01.680Z,27.50
2022-08-09T09:36:59.067Z,27.46
2022-08-09T09:37:58.050Z,27.46
2022-08-09T09:38:58.041Z,27.38
2022-08-09T09:39:59.542Z,27.42
2022-08-09T09:40:58.003Z,27.46
2022-08-09T09:41:58.017Z,27.42
2022-08-09T09:42:58.118Z,27.35
2022-08-09T09:44:12.574Z,27.33
2022-08-09T09:45:00.672Z,27.36
2022-08-09T09:46:39.505Z,27.43
2022-08-09T09:46:58.897Z,27.42
2022-08-09T09:47:58.547Z,27.51
2022-08-09T09:48:57.947Z,27.50
2022-08-09T09:50:15.698Z,27.39
2022-08-09T09:50:58.853Z,27.35
2022-08-09T09:51:57.870Z,27.32
2022-08-09T09:52:58.261Z,27.47
2022-08-09T09:54:04.005Z,27.71
2022-08-09T09:54:59.018Z,27.84
2022-08-09T09:56:04.563Z,27.91
2022-08-09T09:58:02.377Z,27.67
2022-08-09T09:58:02.865Z,27.79
2022-08-09T09:58:58.783Z,27.70
2022-08-09T09:59:57.844Z,27.48
2022-08-09T10:00:58.782Z,27.47
2022-08-09T10:01:57.752Z,27.36
2022-08-09T10:02:58.080Z,27.26
2022-08-09T10:04:00.117Z,27.20
2022-08-09T10:04:57.749Z,27.19
2022-08-09T10:06:03.508Z,27.38
2022-08-09T10:06:58.820Z,27.61
2022-08-09T10:08:01.017Z,27.57
2022-08-09T10:08:58.643Z,27.41
2022-08-09T10:09:57.598Z,27.41
2022-08-09T10:10:57.658Z,27.46
2022-08-09T10:12:04.382Z,27.50
2022-08-09T10:12:59.955Z,27.51
2022-08-09T10:13:57.560Z,27.47
2022-08-09T10:14:57.602Z,27.39
2022-08-09T10:16:54.716Z,27.42
2022-08-09T10:17:11.439Z,27.38
2022-08-09T10:17:58.501Z,27.38
2022-08-09T10:18:59.862Z,27.46
2022-08-09T10:19:57.508Z,27.53
2022-08-09T10:20:57.469Z,27.69
2022-08-09T10:21:57.435Z,27.76
2022-08-09T10:23:00.662Z,27.80
2022-08-09T10:23:57.450Z,27.79
2022-08-09T10:24:57.404Z,27.67
2022-08-09T10:26:07.297Z,27.54
2022-08-09T10:26:58.469Z,27.46
2022-08-09T10:27:58.284Z,27.43
2022-08-09T10:29:36.741Z,27.47
2022-08-09T10:30:43.864Z,27.66
2022-08-09T10:32:38.206Z,27.91
2022-08-09T10:32:58.341Z,27.88
2022-08-09T10:34:10.710Z,27.98
2022-08-09T10:34:58.309Z,28.10
2022-08-09T10:35:57.265Z,28.23
2022-08-09T10:36:57.306Z,28.17
2022-08-09T10:37:57.222Z,28.04
2022-08-09T10:39:00.027Z,28.06
2022-08-09T10:39:57.298Z,28.22
2022-08-09T10:40:57.443Z,28.17
2022-08-09T10:41:57.239Z,28.28
2022-08-09T10:42:57.197Z,28.22
2022-08-09T10:44:01.357Z,28.23
2022-08-09T10:44:57.154Z,28.29
2022-08-09T10:46:00.092Z,28.29
2022-08-09T10:47:01.184Z,28.47
2022-08-09T10:48:17.023Z,28.36
2022-08-09T10:48:58.087Z,28.26
2022-08-09T10:49:57.118Z,28.31
2022-08-09T10:50:57.180Z,28.21
2022-08-09T10:51:57.086Z,28.01
2022-08-09T10:52:57.078Z,27.98
2022-08-09T10:53:57.088Z,28.07
2022-08-09T10:54:57.006Z,28.13
2022-08-09T10:55:59.448Z,28.03
2022-08-09T10:56:57.046Z,28.13
2022-08-09T10:57:59.935Z,28.17
2022-08-09T10:58:57.029Z,28.26
2022-08-09T10:59:58.561Z,28.33
2022-08-09T11:03:03.350Z,28.28
2022-08-09T11:03:11.444Z,28.23
2022-08-09T11:03:15.623Z,28.32
2022-08-09T11:04:01.869Z,28.32
2022-08-09T11:04:58.022Z,28.31
2022-08-09T11:06:00.364Z,28.38
2022-08-09T11:07:19.443Z,28.26
2022-08-09T11:07:58.992Z,28.19
2022-08-09T11:09:08.643Z,28.32
2022-08-09T11:09:59.680Z,28.47
2022-08-09T11:11:00.959Z,28.36
2022-08-09T11:11:57.859Z,28.36
2022-08-09T11:12:56.840Z,28.47
2022-08-09T11:13:56.810Z,28.56
2022-08-09T11:14:57.348Z,28.44
2022-08-09T11:16:04.816Z,28.44
2022-08-09T11:16:57.718Z,28.43
2022-08-09T11:18:02.833Z,28.40
2022-08-09T11:18:57.743Z,28.48
2022-08-09T11:20:12.252Z,28.53
2022-08-09T11:20:57.822Z,28.59
2022-08-09T11:22:05.525Z,28.60
2022-08-09T11:22:58.419Z,28.69
2022-08-09T11:23:56.705Z,28.68
2022-08-09T11:24:56.654Z,28.58
2022-08-09T11:25:56.614Z,28.47
2022-08-09T11:26:56.601Z,28.54
2022-08-09T11:28:07.921Z,28.68
2022-08-09T11:28:57.656Z,28.69
2022-08-09T11:30:05.942Z,28.66
2022-08-09T11:30:57.809Z,28.75
2022-08-09T11:31:56.840Z,28.73
2022-08-09T11:32:56.619Z,28.73
2022-08-09T11:33:56.593Z,28.77
2022-08-09T11:34:56.736Z,28.73
2022-08-09T11:35:56.492Z,28.68
2022-08-09T11:36:56.912Z,28.73
2022-08-09T11:37:56.462Z,28.84
2022-08-09T11:38:56.622Z,28.85
2022-08-09T11:39:56.585Z,28.85
2022-08-09T11:40:56.406Z,28.84
2022-08-09T11:41:58.922Z,28.91
2022-08-09T11:42:56.544Z,29.01
2022-08-09T11:43:56.411Z,28.97
2022-08-09T11:44:57.313Z,28.90
2022-08-09T11:45:56.399Z,28.97
2022-08-09T11:46:56.445Z,29.10
2022-08-09T11:47:59.965Z,29.04
2022-08-09T11:48:57.330Z,29.01
2022-08-09T11:50:53.341Z,28.84
2022-08-09T11:52:53.768Z,28.77
2022-08-09T11:52:59.166Z,28.82
2022-08-09T11:53:16.467Z,28.77
2022-08-09T11:54:01.767Z,28.81
2022-08-09T11:54:57.353Z,28.85
2022-08-09T11:56:02.593Z,28.82
2022-08-09T11:56:57.215Z,28.81
2022-08-09T11:58:02.810Z,28.81
2022-08-09T11:58:57.217Z,28.73
2022-08-09T11:59:56.309Z,28.63
2022-08-09T12:00:56.251Z,28.77
2022-08-09T12:02:17.103Z,28.87
2022-08-09T12:02:57.799Z,28.97
2022-08-09T12:03:58.231Z,28.93
2022-08-09T12:04:59.028Z,28.90
2022-08-09T12:05:56.196Z,28.81
2022-08-09T12:06:56.224Z,28.90
2022-08-09T12:07:56.038Z,28.91
2022-08-09T12:08:56.249Z,28.80
2022-08-09T12:09:56.078Z,28.75
2022-08-09T12:10:55.978Z,28.78
2022-08-09T12:12:03.275Z,28.72
2022-08-09T12:12:57.017Z,28.81
2022-08-09T12:14:11.051Z,29.04
2022-08-09T12:15:03.815Z,29.07
2022-08-09T12:15:56.973Z,29.07
2022-08-09T12:16:56.383Z,28.97
2022-08-09T12:17:55.951Z,28.95
2022-08-09T12:18:56.079Z,29.06
2022-08-09T12:19:59.437Z,29.23
2022-08-09T12:20:55.873Z,29.26
2022-08-09T12:21:55.877Z,29.28
2022-08-09T12:22:56.325Z,29.16
2022-08-09T12:24:06.257Z,29.19
2022-08-09T12:24:56.925Z,29.25
2022-08-09T12:25:55.815Z,29.16
2022-08-09T12:29:10.642Z,28.91
2022-08-09T12:29:12.577Z,29.10
2022-08-09T12:29:13.894Z,28.96
2022-08-09T12:30:01.885Z,28.90
2022-08-09T12:30:56.740Z,28.95
2022-08-09T12:32:01.907Z,29.10
2022-08-09T12:32:56.875Z,29.16
2022-08-09T12:33:58.988Z,29.41
2022-08-09T12:34:56.740Z,29.74
2022-08-09T12:35:55.683Z,29.79
2022-08-09T12:36:58.813Z,29.66
2022-08-09T12:37:56.821Z,29.50
2022-08-09T12:38:55.630Z,29.45
2022-08-09T12:39:55.643Z,29.44
2022-08-09T12:40:55.656Z,29.26
2022-08-09T12:41:56.560Z,29.15
2022-08-09T12:42:55.623Z,29.34
2022-08-09T12:44:06.883Z,29.44
2022-08-09T12:44:56.600Z,29.31
2022-08-09T12:45:59.823Z,29.28
2022-08-09T12:46:55.543Z,29.38
2022-08-09T12:48:01.490Z,29.68
2022-08-09T12:48:55.473Z,29.92
2022-08-09T12:49:56.510Z,29.87
2022-08-09T12:50:55.602Z,29.62
2022-08-09T12:52:02.443Z,29.35
2022-08-09T12:53:09.400Z,29.28